sensor_id;sensor_type;location;lat;lon;timestamp;P1;durP1;ratioP1;P2;durP2;ratioP2
29730;SDS011;16639;51.488;0.152;2023-07-22T00:01:14;13.68;;;3.80;;
29730;SDS011;16639;51.488;0.152;2023-07-22T00:03:41;10.60;;;4.00;;
29730;SDS011;16639;51.488;0.152;2023-07-22T00:06:09;6.72;;;4.10;;
29730;SDS011;16639;51.488;0.152;2023-07-22T00:08:37;10.30;;;4.55;;
29730;SDS011;16639;51.488;0.152;2023-07-22T00:11:05;5.28;;;3.22;;
29730;SDS011;16639;51.488;0.152;2023-07-22T00:13:33;7.90;;;3.13;;
29730;SDS011;16639;51.488;0.152;2023-07-22T00:16:01;9.35;;;4.25;;
29730;SDS011;16639;51.488;0.152;2023-07-22T00:18:31;7.10;;;3.38;;
29730;SDS011;16639;51.488;0.152;2023-07-22T00:20:59;7.18;;;3.42;;
29730;SDS011;16639;51.488;0.152;2023-07-22T00:23:26;9.85;;;3.83;;
29730;SDS011;16639;51.488;0.152;2023-07-22T00:25:54;4.25;;;3.20;;
29730;SDS011;16639;51.488;0.152;2023-07-22T00:28:21;5.55;;;3.75;;
29730;SDS011;16639;51.488;0.152;2023-07-22T00:30:48;6.93;;;3.70;;
29730;SDS011;16639;51.488;0.152;2023-07-22T00:33:16;3.88;;;3.08;;
29730;SDS011;16639;51.488;0.152;2023-07-22T00:35:47;5.40;;;3.10;;
29730;SDS011;16639;51.488;0.152;2023-07-22T00:38:17;7.38;;;3.92;;
29730;SDS011;16639;51.488;0.152;2023-07-22T00:40:45;6.68;;;3.80;;
29730;SDS011;16639;51.488;0.152;2023-07-22T00:43:13;8.38;;;3.75;;
29730;SDS011;16639;51.488;0.152;2023-07-22T00:45:40;5.80;;;3.50;;
29730;SDS011;16639;51.488;0.152;2023-07-22T00:48:08;9.30;;;3.90;;
29730;SDS011;16639;51.488;0.152;2023-07-22T00:50:37;5.25;;;3.55;;
29730;SDS011;16639;51.488;0.152;2023-07-22T00:53:06;4.75;;;3.28;;
29730;SDS011;16639;51.488;0.152;2023-07-22T00:55:33;7.00;;;3.75;;
29730;SDS011;16639;51.488;0.152;2023-07-22T00:58:03;5.63;;;4.03;;
29730;SDS011;16639;51.488;0.152;2023-07-22T01:00:31;6.95;;;3.58;;
29730;SDS011;16639;51.488;0.152;2023-07-22T01:02:58;5.00;;;3.55;;
29730;SDS011;16639;51.488;0.152;2023-07-22T01:05:26;8.23;;;4.53;;
29730;SDS011;16639;51.488;0.152;2023-07-22T01:07:54;6.50;;;4.45;;
29730;SDS011;16639;51.488;0.152;2023-07-22T01:10:22;8.65;;;4.20;;
29730;SDS011;16639;51.488;0.152;2023-07-22T01:12:50;6.20;;;3.58;;
29730;SDS011;16639;51.488;0.152;2023-07-22T01:15:17;6.38;;;3.95;;
29730;SDS011;16639;51.488;0.152;2023-07-22T01:17:45;7.53;;;3.33;;
29730;SDS011;16639;51.488;0.152;2023-07-22T01:20:12;9.57;;;4.28;;
29730;SDS011;16639;51.488;0.152;2023-07-22T01:22:40;10.07;;;3.38;;
29730;SDS011;16639;51.488;0.152;2023-07-22T01:25:09;4.13;;;3.25;;
29730;SDS011;16639;51.488;0.152;2023-07-22T01:27:37;4.60;;;3.35;;
29730;SDS011;16639;51.488;0.152;2023-07-22T01:30:04;5.05;;;3.42;;
29730;SDS011;16639;51.488;0.152;2023-07-22T01:32:33;4.32;;;3.00;;
29730;SDS011;16639;51.488;0.152;2023-07-22T01:35:03;6.72;;;3.30;;
29730;SDS011;16639;51.488;0.152;2023-07-22T01:37:31;5.03;;;3.05;;
29730;SDS011;16639;51.488;0.152;2023-07-22T01:39:58;4.93;;;2.70;;
29730;SDS011;16639;51.488;0.152;2023-07-22T01:42:26;6.28;;;2.67;;
29730;SDS011;16639;51.488;0.152;2023-07-22T01:44:54;4.50;;;2.97;;
29730;SDS011;16639;51.488;0.152;2023-07-22T01:47:21;10.60;;;3.03;;
29730;SDS011;16639;51.488;0.152;2023-07-22T01:49:49;6.90;;;2.65;;
29730;SDS011;16639;51.488;0.152;2023-07-22T01:52:19;5.53;;;3.17;;
29730;SDS011;16639;51.488;0.152;2023-07-22T01:54:46;4.43;;;2.47;;
29730;SDS011;16639;51.488;0.152;2023-07-22T01:57:14;5.15;;;2.88;;
29730;SDS011;16639;51.488;0.152;2023-07-22T01:59:41;4.15;;;3.33;;
29730;SDS011;16639;51.488;0.152;2023-07-22T02:02:09;4.85;;;3.05;;
29730;SDS011;16639;51.488;0.152;2023-07-22T02:04:36;4.13;;;2.53;;
29730;SDS011;16639;51.488;0.152;2023-07-22T02:07:04;8.98;;;2.50;;
29730;SDS011;16639;51.488;0.152;2023-07-22T02:09:32;7.15;;;2.83;;
29730;SDS011;16639;51.488;0.152;2023-07-22T02:12:02;3.83;;;2.70;;
29730;SDS011;16639;51.488;0.152;2023-07-22T02:14:30;5.43;;;2.63;;
29730;SDS011;16639;51.488;0.152;2023-07-22T02:16:57;3.55;;;2.80;;
29730;SDS011;16639;51.488;0.152;2023-07-22T02:19:25;7.28;;;2.63;;
29730;SDS011;16639;51.488;0.152;2023-07-22T02:21:52;3.95;;;2.83;;
29730;SDS011;16639;51.488;0.152;2023-07-22T02:24:19;6.60;;;2.60;;
29730;SDS011;16639;51.488;0.152;2023-07-22T02:26:48;10.02;;;3.03;;
29730;SDS011;16639;51.488;0.152;2023-07-22T02:29:16;5.25;;;2.63;;
29730;SDS011;16639;51.488;0.152;2023-07-22T02:31:46;5.53;;;2.13;;
29730;SDS011;16639;51.488;0.152;2023-07-22T02:34:13;4.60;;;3.03;;
29730;SDS011;16639;51.488;0.152;2023-07-22T02:36:41;6.32;;;2.75;;
29730;SDS011;16639;51.488;0.152;2023-07-22T02:39:08;4.47;;;2.42;;
29730;SDS011;16639;51.488;0.152;2023-07-22T02:41:36;6.13;;;2.78;;
29730;SDS011;16639;51.488;0.152;2023-07-22T02:44:03;6.47;;;2.60;;
29730;SDS011;16639;51.488;0.152;2023-07-22T02:46:31;6.70;;;2.90;;
29730;SDS011;16639;51.488;0.152;2023-07-22T02:48:58;7.47;;;3.00;;
29730;SDS011;16639;51.488;0.152;2023-07-22T02:51:26;5.68;;;2.83;;
29730;SDS011;16639;51.488;0.152;2023-07-22T02:53:53;6.40;;;2.97;;
29730;SDS011;16639;51.488;0.152;2023-07-22T02:56:20;8.95;;;3.05;;
29730;SDS011;16639;51.488;0.152;2023-07-22T02:58:48;6.05;;;3.17;;
29730;SDS011;16639;51.488;0.152;2023-07-22T03:01:16;7.22;;;3.80;;
29730;SDS011;16639;51.488;0.152;2023-07-22T03:03:44;7.18;;;3.55;;
29730;SDS011;16639;51.488;0.152;2023-07-22T03:06:11;5.28;;;3.00;;
29730;SDS011;16639;51.488;0.152;2023-07-22T03:08:38;4.55;;;2.78;;
29730;SDS011;16639;51.488;0.152;2023-07-22T03:11:06;7.20;;;3.15;;
29730;SDS011;16639;51.488;0.152;2023-07-22T03:13:33;5.32;;;3.22;;
29730;SDS011;16639;51.488;0.152;2023-07-22T03:16:02;9.27;;;3.22;;
29730;SDS011;16639;51.488;0.152;2023-07-22T03:18:32;5.13;;;3.15;;
29730;SDS011;16639;51.488;0.152;2023-07-22T03:20:59;5.82;;;2.90;;
29730;SDS011;16639;51.488;0.152;2023-07-22T03:23:26;6.53;;;3.13;;
29730;SDS011;16639;51.488;0.152;2023-07-22T03:25:54;7.05;;;3.28;;
29730;SDS011;16639;51.488;0.152;2023-07-22T03:28:21;6.53;;;2.60;;
29730;SDS011;16639;51.488;0.152;2023-07-22T03:30:48;7.43;;;3.40;;
29730;SDS011;16639;51.488;0.152;2023-07-22T03:33:16;5.40;;;2.95;;
29730;SDS011;16639;51.488;0.152;2023-07-22T03:35:43;6.60;;;3.22;;
29730;SDS011;16639;51.488;0.152;2023-07-22T03:38:11;7.25;;;3.15;;
29730;SDS011;16639;51.488;0.152;2023-07-22T03:40:38;6.60;;;3.30;;
29730;SDS011;16639;51.488;0.152;2023-07-22T03:43:06;8.85;;;3.45;;
29730;SDS011;16639;51.488;0.152;2023-07-22T03:45:33;9.40;;;2.70;;
29730;SDS011;16639;51.488;0.152;2023-07-22T03:48:01;3.95;;;2.63;;
29730;SDS011;16639;51.488;0.152;2023-07-22T03:50:28;5.03;;;3.28;;
29730;SDS011;16639;51.488;0.152;2023-07-22T03:52:56;5.95;;;3.13;;
29730;SDS011;16639;51.488;0.152;2023-07-22T03:55:23;5.13;;;3.13;;
29730;SDS011;16639;51.488;0.152;2023-07-22T03:57:50;8.40;;;3.03;;
29730;SDS011;16639;51.488;0.152;2023-07-22T04:00:18;7.03;;;3.33;;
29730;SDS011;16639;51.488;0.152;2023-07-22T04:02:46;7.32;;;3.17;;
29730;SDS011;16639;51.488;0.152;2023-07-22T04:05:14;9.60;;;2.65;;
29730;SDS011;16639;51.488;0.152;2023-07-22T04:07:41;9.10;;;3.22;;
29730;SDS011;16639;51.488;0.152;2023-07-22T04:10:08;9.02;;;3.15;;
29730;SDS011;16639;51.488;0.152;2023-07-22T04:12:36;13.65;;;3.33;;
29730;SDS011;16639;51.488;0.152;2023-07-22T04:15:07;4.93;;;3.35;;
29730;SDS011;16639;51.488;0.152;2023-07-22T04:17:34;6.95;;;2.90;;
29730;SDS011;16639;51.488;0.152;2023-07-22T04:20:02;7.25;;;2.97;;
29730;SDS011;16639;51.488;0.152;2023-07-22T04:22:31;5.53;;;2.72;;
29730;SDS011;16639;51.488;0.152;2023-07-22T04:24:58;7.07;;;2.78;;
29730;SDS011;16639;51.488;0.152;2023-07-22T04:27:26;7.45;;;2.70;;
29730;SDS011;16639;51.488;0.152;2023-07-22T04:29:53;6.20;;;3.03;;
29730;SDS011;16639;51.488;0.152;2023-07-22T04:32:21;5.07;;;2.90;;
29730;SDS011;16639;51.488;0.152;2023-07-22T04:34:48;5.93;;;2.83;;
29730;SDS011;16639;51.488;0.152;2023-07-22T04:37:15;8.30;;;3.25;;
29730;SDS011;16639;51.488;0.152;2023-07-22T04:39:48;5.50;;;3.25;;
29730;SDS011;16639;51.488;0.152;2023-07-22T04:42:16;7.30;;;3.40;;
29730;SDS011;16639;51.488;0.152;2023-07-22T04:44:43;4.63;;;2.53;;
29730;SDS011;16639;51.488;0.152;2023-07-22T04:47:11;6.00;;;3.42;;
29730;SDS011;16639;51.488;0.152;2023-07-22T04:49:38;5.80;;;2.67;;
29730;SDS011;16639;51.488;0.152;2023-07-22T04:52:06;5.93;;;2.58;;
29730;SDS011;16639;51.488;0.152;2023-07-22T04:54:33;7.03;;;3.15;;
29730;SDS011;16639;51.488;0.152;2023-07-22T04:57:01;6.15;;;3.28;;
29730;SDS011;16639;51.488;0.152;2023-07-22T04:59:30;6.32;;;2.58;;
29730;SDS011;16639;51.488;0.152;2023-07-22T05:01:58;5.07;;;2.30;;
29730;SDS011;16639;51.488;0.152;2023-07-22T05:04:25;6.45;;;2.92;;
29730;SDS011;16639;51.488;0.152;2023-07-22T05:06:52;9.50;;;2.60;;
29730;SDS011;16639;51.488;0.152;2023-07-22T05:09:20;5.80;;;2.65;;
29730;SDS011;16639;51.488;0.152;2023-07-22T05:11:47;7.43;;;2.88;;
29730;SDS011;16639;51.488;0.152;2023-07-22T05:14:15;8.20;;;2.53;;
29730;SDS011;16639;51.488;0.152;2023-07-22T05:16:42;5.72;;;2.50;;
29730;SDS011;16639;51.488;0.152;2023-07-22T05:19:09;5.88;;;2.38;;
29730;SDS011;16639;51.488;0.152;2023-07-22T05:21:37;7.85;;;2.10;;
29730;SDS011;16639;51.488;0.152;2023-07-22T05:24:04;3.70;;;2.20;;
29730;SDS011;16639;51.488;0.152;2023-07-22T05:26:32;5.85;;;2.45;;
29730;SDS011;16639;51.488;0.152;2023-07-22T05:28:59;6.22;;;2.30;;
29730;SDS011;16639;51.488;0.152;2023-07-22T05:31:26;5.20;;;2.78;;
29730;SDS011;16639;51.488;0.152;2023-07-22T05:33:54;8.25;;;2.97;;
29730;SDS011;16639;51.488;0.152;2023-07-22T05:36:21;9.75;;;2.17;;
29730;SDS011;16639;51.488;0.152;2023-07-22T05:38:49;4.25;;;1.83;;
29730;SDS011;16639;51.488;0.152;2023-07-22T05:41:16;3.03;;;2.05;;
29730;SDS011;16639;51.488;0.152;2023-07-22T05:43:43;6.72;;;2.42;;
29730;SDS011;16639;51.488;0.152;2023-07-22T05:46:11;4.78;;;2.17;;
29730;SDS011;16639;51.488;0.152;2023-07-22T05:48:38;5.13;;;2.30;;
29730;SDS011;16639;51.488;0.152;2023-07-22T05:51:06;6.35;;;2.38;;
29730;SDS011;16639;51.488;0.152;2023-07-22T05:53:33;5.72;;;2.08;;
29730;SDS011;16639;51.488;0.152;2023-07-22T05:56:01;3.60;;;2.10;;
29730;SDS011;16639;51.488;0.152;2023-07-22T05:58:28;3.42;;;1.98;;
29730;SDS011;16639;51.488;0.152;2023-07-22T06:00:55;5.45;;;2.25;;
29730;SDS011;16639;51.488;0.152;2023-07-22T06:03:23;5.53;;;1.80;;
29730;SDS011;16639;51.488;0.152;2023-07-22T06:05:50;3.58;;;1.63;;
29730;SDS011;16639;51.488;0.152;2023-07-22T06:08:18;5.38;;;2.45;;
29730;SDS011;16639;51.488;0.152;2023-07-22T06:10:46;3.00;;;2.00;;
29730;SDS011;16639;51.488;0.152;2023-07-22T06:13:13;7.18;;;1.92;;
29730;SDS011;16639;51.488;0.152;2023-07-22T06:15:41;5.07;;;1.95;;
29730;SDS011;16639;51.488;0.152;2023-07-22T06:18:08;4.40;;;2.10;;
29730;SDS011;16639;51.488;0.152;2023-07-22T06:20:35;6.72;;;2.58;;
29730;SDS011;16639;51.488;0.152;2023-07-22T06:23:03;5.97;;;1.77;;
29730;SDS011;16639;51.488;0.152;2023-07-22T06:25:31;5.32;;;1.98;;
29730;SDS011;16639;51.488;0.152;2023-07-22T06:27:58;4.00;;;2.03;;
29730;SDS011;16639;51.488;0.152;2023-07-22T06:30:26;5.28;;;2.05;;
29730;SDS011;16639;51.488;0.152;2023-07-22T06:32:54;10.38;;;3.70;;
29730;SDS011;16639;51.488;0.152;2023-07-22T06:35:21;5.68;;;1.80;;
29730;SDS011;16639;51.488;0.152;2023-07-22T06:37:49;8.63;;;1.98;;
29730;SDS011;16639;51.488;0.152;2023-07-22T06:40:17;3.17;;;2.22;;
29730;SDS011;16639;51.488;0.152;2023-07-22T06:42:45;3.95;;;1.85;;
29730;SDS011;16639;51.488;0.152;2023-07-22T06:45:12;5.72;;;2.20;;
29730;SDS011;16639;51.488;0.152;2023-07-22T06:47:40;2.72;;;2.00;;
29730;SDS011;16639;51.488;0.152;2023-07-22T06:50:07;6.10;;;2.03;;
29730;SDS011;16639;51.488;0.152;2023-07-22T06:52:35;3.60;;;2.15;;
29730;SDS011;16639;51.488;0.152;2023-07-22T06:55:05;4.15;;;2.17;;
29730;SDS011;16639;51.488;0.152;2023-07-22T06:57:33;4.57;;;2.10;;
29730;SDS011;16639;51.488;0.152;2023-07-22T07:00:00;3.83;;;2.05;;
29730;SDS011;16639;51.488;0.152;2023-07-22T07:02:28;9.50;;;3.20;;
29730;SDS011;16639;51.488;0.152;2023-07-22T07:04:55;6.20;;;2.35;;
29730;SDS011;16639;51.488;0.152;2023-07-22T07:07:25;4.13;;;2.47;;
29730;SDS011;16639;51.488;0.152;2023-07-22T07:09:53;7.97;;;3.10;;
29730;SDS011;16639;51.488;0.152;2023-07-22T07:12:20;8.73;;;2.78;;
29730;SDS011;16639;51.488;0.152;2023-07-22T07:14:52;18.23;;;5.78;;
29730;SDS011;16639;51.488;0.152;2023-07-22T07:17:20;5.60;;;2.53;;
29730;SDS011;16639;51.488;0.152;2023-07-22T07:19:47;8.32;;;2.58;;
29730;SDS011;16639;51.488;0.152;2023-07-22T07:22:15;7.50;;;2.83;;
29730;SDS011;16639;51.488;0.152;2023-07-22T07:24:43;4.25;;;1.95;;
29730;SDS011;16639;51.488;0.152;2023-07-22T07:27:10;5.75;;;2.30;;
29730;SDS011;16639;51.488;0.152;2023-07-22T07:29:38;5.32;;;2.60;;
29730;SDS011;16639;51.488;0.152;2023-07-22T07:32:20;6.50;;;2.58;;
29730;SDS011;16639;51.488;0.152;2023-07-22T07:34:48;3.83;;;2.92;;
29730;SDS011;16639;51.488;0.152;2023-07-22T07:37:15;4.57;;;2.58;;
29730;SDS011;16639;51.488;0.152;2023-07-22T07:39:43;5.32;;;2.50;;
29730;SDS011;16639;51.488;0.152;2023-07-22T07:42:10;10.60;;;3.60;;
29730;SDS011;16639;51.488;0.152;2023-07-22T07:44:38;8.70;;;3.28;;
29730;SDS011;16639;51.488;0.152;2023-07-22T07:47:05;5.07;;;2.20;;
29730;SDS011;16639;51.488;0.152;2023-07-22T07:49:33;4.43;;;2.15;;
29730;SDS011;16639;51.488;0.152;2023-07-22T07:52:00;4.82;;;2.60;;
29730;SDS011;16639;51.488;0.152;2023-07-22T07:54:28;5.53;;;2.67;;
29730;SDS011;16639;51.488;0.152;2023-07-22T07:56:58;11.48;;;3.80;;
29730;SDS011;16639;51.488;0.152;2023-07-22T07:59:26;7.47;;;3.10;;
29730;SDS011;16639;51.488;0.152;2023-07-22T08:01:54;3.70;;;2.40;;
29730;SDS011;16639;51.488;0.152;2023-07-22T08:04:21;5.88;;;2.90;;
29730;SDS011;16639;51.488;0.152;2023-07-22T08:06:50;4.95;;;2.00;;
29730;SDS011;16639;51.488;0.152;2023-07-22T08:09:17;6.35;;;2.42;;
29730;SDS011;16639;51.488;0.152;2023-07-22T08:11:46;5.30;;;2.40;;
29730;SDS011;16639;51.488;0.152;2023-07-22T08:14:14;3.30;;;2.45;;
29730;SDS011;16639;51.488;0.152;2023-07-22T08:16:41;6.60;;;2.28;;
29730;SDS011;16639;51.488;0.152;2023-07-22T08:19:09;4.43;;;2.13;;
29730;SDS011;16639;51.488;0.152;2023-07-22T08:21:37;3.85;;;1.67;;
29730;SDS011;16639;51.488;0.152;2023-07-22T08:24:05;5.55;;;2.28;;
29730;SDS011;16639;51.488;0.152;2023-07-22T08:26:32;3.22;;;1.90;;
29730;SDS011;16639;51.488;0.152;2023-07-22T08:29:00;2.75;;;1.60;;
29730;SDS011;16639;51.488;0.152;2023-07-22T08:31:27;4.03;;;2.15;;
29730;SDS011;16639;51.488;0.152;2023-07-22T08:33:55;4.82;;;2.00;;
29730;SDS011;16639;51.488;0.152;2023-07-22T08:36:24;5.35;;;2.30;;
29730;SDS011;16639;51.488;0.152;2023-07-22T08:38:52;2.75;;;2.05;;
29730;SDS011;16639;51.488;0.152;2023-07-22T08:41:19;4.05;;;2.25;;
29730;SDS011;16639;51.488;0.152;2023-07-22T08:43:49;3.75;;;2.22;;
29730;SDS011;16639;51.488;0.152;2023-07-22T08:46:19;6.22;;;2.65;;
29730;SDS011;16639;51.488;0.152;2023-07-22T08:48:49;4.43;;;2.45;;
29730;SDS011;16639;51.488;0.152;2023-07-22T08:51:20;2.58;;;2.15;;
29730;SDS011;16639;51.488;0.152;2023-07-22T08:53:50;6.90;;;2.80;;
29730;SDS011;16639;51.488;0.152;2023-07-22T08:56:36;3.67;;;1.90;;
29730;SDS011;16639;51.488;0.152;2023-07-22T08:59:04;5.00;;;2.17;;
29730;SDS011;16639;51.488;0.152;2023-07-22T09:01:33;6.30;;;2.20;;
29730;SDS011;16639;51.488;0.152;2023-07-22T09:04:03;8.15;;;2.00;;
29730;SDS011;16639;51.488;0.152;2023-07-22T09:06:31;5.43;;;2.30;;
29730;SDS011;16639;51.488;0.152;2023-07-22T09:09:01;6.43;;;2.50;;
29730;SDS011;16639;51.488;0.152;2023-07-22T09:11:34;4.57;;;2.15;;
29730;SDS011;16639;51.488;0.152;2023-07-22T09:14:02;5.82;;;2.58;;
29730;SDS011;16639;51.488;0.152;2023-07-22T09:16:31;4.55;;;1.88;;
29730;SDS011;16639;51.488;0.152;2023-07-22T09:19:00;3.50;;;2.17;;
29730;SDS011;16639;51.488;0.152;2023-07-22T09:21:27;4.20;;;2.10;;
29730;SDS011;16639;51.488;0.152;2023-07-22T09:23:55;3.53;;;2.05;;
29730;SDS011;16639;51.488;0.152;2023-07-22T09:26:22;4.82;;;1.92;;
29730;SDS011;16639;51.488;0.152;2023-07-22T09:31:19;2.95;;;1.67;;
29730;SDS011;16639;51.488;0.152;2023-07-22T09:33:48;5.10;;;2.63;;
29730;SDS011;16639;51.488;0.152;2023-07-22T09:36:16;3.15;;;2.10;;
29730;SDS011;16639;51.488;0.152;2023-07-22T09:38:43;4.47;;;2.20;;
29730;SDS011;16639;51.488;0.152;2023-07-22T09:41:11;4.85;;;2.22;;
29730;SDS011;16639;51.488;0.152;2023-07-22T09:43:40;5.03;;;2.60;;
29730;SDS011;16639;51.488;0.152;2023-07-22T09:46:08;7.05;;;2.45;;
29730;SDS011;16639;51.488;0.152;2023-07-22T09:48:40;7.72;;;3.25;;
29730;SDS011;16639;51.488;0.152;2023-07-22T09:51:12;8.77;;;3.60;;
29730;SDS011;16639;51.488;0.152;2023-07-22T09:53:44;4.57;;;2.75;;
29730;SDS011;16639;51.488;0.152;2023-07-22T09:56:12;6.50;;;2.58;;
29730;SDS011;16639;51.488;0.152;2023-07-22T09:58:40;5.20;;;2.50;;
29730;SDS011;16639;51.488;0.152;2023-07-22T10:01:09;2.88;;;2.22;;
29730;SDS011;16639;51.488;0.152;2023-07-22T10:03:41;6.25;;;2.50;;
29730;SDS011;16639;51.488;0.152;2023-07-22T10:06:10;7.32;;;2.53;;
29730;SDS011;16639;51.488;0.152;2023-07-22T10:08:39;7.00;;;3.33;;
29730;SDS011;16639;51.488;0.152;2023-07-22T10:11:10;35.70;;;19.35;;
29730;SDS011;16639;51.488;0.152;2023-07-22T10:13:39;15.13;;;7.47;;
29730;SDS011;16639;51.488;0.152;2023-07-22T10:16:07;6.78;;;3.80;;
29730;SDS011;16639;51.488;0.152;2023-07-22T10:18:35;10.13;;;5.63;;
29730;SDS011;16639;51.488;0.152;2023-07-22T10:21:05;8.20;;;3.47;;
29730;SDS011;16639;51.488;0.152;2023-07-22T10:23:32;9.07;;;3.42;;
29730;SDS011;16639;51.488;0.152;2023-07-22T10:26:00;13.35;;;6.07;;
29730;SDS011;16639;51.488;0.152;2023-07-22T10:28:30;10.40;;;5.15;;
29730;SDS011;16639;51.488;0.152;2023-07-22T10:30:58;31.27;;;14.65;;
29730;SDS011;16639;51.488;0.152;2023-07-22T10:33:26;25.90;;;10.02;;
29730;SDS011;16639;51.488;0.152;2023-07-22T10:38:40;13.23;;;6.30;;
29730;SDS011;16639;51.488;0.152;2023-07-22T10:41:14;7.53;;;3.35;;
29730;SDS011;16639;51.488;0.152;2023-07-22T10:43:55;55.30;;;24.23;;
29730;SDS011;16639;51.488;0.152;2023-07-22T10:46:36;37.45;;;17.80;;
29730;SDS011;16639;51.488;0.152;2023-07-22T10:49:11;12.52;;;5.13;;
29730;SDS011;16639;51.488;0.152;2023-07-22T10:51:50;12.38;;;6.82;;
29730;SDS011;16639;51.488;0.152;2023-07-22T10:54:31;43.50;;;18.40;;
29730;SDS011;16639;51.488;0.152;2023-07-22T10:57:04;30.83;;;14.32;;
29730;SDS011;16639;51.488;0.152;2023-07-22T10:59:48;16.08;;;8.25;;
29730;SDS011;16639;51.488;0.152;2023-07-22T11:02:23;7.38;;;3.30;;
29730;SDS011;16639;51.488;0.152;2023-07-22T11:04:55;14.48;;;7.20;;
29730;SDS011;16639;51.488;0.152;2023-07-22T11:07:32;16.75;;;9.85;;
29730;SDS011;16639;51.488;0.152;2023-07-22T11:10:14;19.30;;;8.95;;
29730;SDS011;16639;51.488;0.152;2023-07-22T11:12:44;10.35;;;4.15;;
29730;SDS011;16639;51.488;0.152;2023-07-22T11:15:14;6.68;;;3.38;;
29730;SDS011;16639;51.488;0.152;2023-07-22T11:17:43;9.25;;;3.08;;
29730;SDS011;16639;51.488;0.152;2023-07-22T11:20:10;5.72;;;2.55;;
29730;SDS011;16639;51.488;0.152;2023-07-22T11:22:41;9.57;;;3.15;;
29730;SDS011;16639;51.488;0.152;2023-07-22T11:25:08;6.15;;;3.50;;
29730;SDS011;16639;51.488;0.152;2023-07-22T11:27:36;12.75;;;5.32;;
29730;SDS011;16639;51.488;0.152;2023-07-22T11:30:04;11.20;;;4.63;;
29730;SDS011;16639;51.488;0.152;2023-07-22T11:32:32;7.72;;;3.22;;
29730;SDS011;16639;51.488;0.152;2023-07-22T11:35:00;5.53;;;2.80;;
29730;SDS011;16639;51.488;0.152;2023-07-22T11:37:27;7.22;;;2.80;;
29730;SDS011;16639;51.488;0.152;2023-07-22T11:39:59;29.98;;;13.93;;
29730;SDS011;16639;51.488;0.152;2023-07-22T11:42:28;29.33;;;13.90;;
29730;SDS011;16639;51.488;0.152;2023-07-22T11:44:56;21.48;;;8.55;;
29730;SDS011;16639;51.488;0.152;2023-07-22T11:47:28;5.65;;;3.38;;
29730;SDS011;16639;51.488;0.152;2023-07-22T11:49:59;9.45;;;5.00;;
29730;SDS011;16639;51.488;0.152;2023-07-22T11:52:27;6.28;;;3.83;;
29730;SDS011;16639;51.488;0.152;2023-07-22T11:54:55;9.27;;;2.50;;
29730;SDS011;16639;51.488;0.152;2023-07-22T11:57:30;10.73;;;2.35;;
29730;SDS011;16639;51.488;0.152;2023-07-22T11:59:57;7.75;;;2.25;;
29730;SDS011;16639;51.488;0.152;2023-07-22T12:02:26;9.40;;;3.28;;
29730;SDS011;16639;51.488;0.152;2023-07-22T12:04:59;15.48;;;3.35;;
29730;SDS011;16639;51.488;0.152;2023-07-22T12:07:35;4.95;;;2.45;;
29730;SDS011;16639;51.488;0.152;2023-07-22T12:10:04;5.50;;;2.58;;
29730;SDS011;16639;51.488;0.152;2023-07-22T12:12:33;10.65;;;3.17;;
29730;SDS011;16639;51.488;0.152;2023-07-22T12:15:09;8.20;;;2.70;;
29730;SDS011;16639;51.488;0.152;2023-07-22T12:17:46;6.60;;;2.88;;
29730;SDS011;16639;51.488;0.152;2023-07-22T12:20:15;5.18;;;3.03;;
29730;SDS011;16639;51.488;0.152;2023-07-22T12:22:46;6.82;;;3.75;;
29730;SDS011;16639;51.488;0.152;2023-07-22T12:25:13;11.65;;;3.20;;
29730;SDS011;16639;51.488;0.152;2023-07-22T12:27:41;10.65;;;3.55;;
29730;SDS011;16639;51.488;0.152;2023-07-22T12:30:09;12.20;;;4.03;;
29730;SDS011;16639;51.488;0.152;2023-07-22T12:32:36;9.82;;;4.05;;
29730;SDS011;16639;51.488;0.152;2023-07-22T12:35:05;16.40;;;4.50;;
29730;SDS011;16639;51.488;0.152;2023-07-22T12:37:33;7.95;;;4.13;;
29730;SDS011;16639;51.488;0.152;2023-07-22T12:40:04;8.88;;;3.83;;
29730;SDS011;16639;51.488;0.152;2023-07-22T12:42:36;8.35;;;4.03;;
29730;SDS011;16639;51.488;0.152;2023-07-22T12:45:04;5.55;;;4.00;;
29730;SDS011;16639;51.488;0.152;2023-07-22T12:47:32;12.02;;;5.07;;
29730;SDS011;16639;51.488;0.152;2023-07-22T12:49:59;11.07;;;4.72;;
29730;SDS011;16639;51.488;0.152;2023-07-22T12:52:27;7.93;;;4.68;;
29730;SDS011;16639;51.488;0.152;2023-07-22T12:54:54;9.68;;;4.82;;
29730;SDS011;16639;51.488;0.152;2023-07-22T12:57:22;11.13;;;5.18;;
29730;SDS011;16639;51.488;0.152;2023-07-22T12:59:49;13.20;;;4.55;;
29730;SDS011;16639;51.488;0.152;2023-07-22T13:02:17;11.23;;;4.28;;
29730;SDS011;16639;51.488;0.152;2023-07-22T13:04:44;11.45;;;5.38;;
29730;SDS011;16639;51.488;0.152;2023-07-22T13:07:12;9.98;;;5.03;;
29730;SDS011;16639;51.488;0.152;2023-07-22T13:09:39;10.88;;;5.13;;
29730;SDS011;16639;51.488;0.152;2023-07-22T13:12:09;13.23;;;5.78;;
29730;SDS011;16639;51.488;0.152;2023-07-22T13:14:37;7.40;;;4.93;;
29730;SDS011;16639;51.488;0.152;2023-07-22T13:17:05;10.52;;;4.82;;
29730;SDS011;16639;51.488;0.152;2023-07-22T13:19:34;12.07;;;4.88;;
29730;SDS011;16639;51.488;0.152;2023-07-22T13:22:01;13.02;;;4.93;;
29730;SDS011;16639;51.488;0.152;2023-07-22T13:24:29;10.05;;;5.00;;
29730;SDS011;16639;51.488;0.152;2023-07-22T13:26:56;8.27;;;5.10;;
29730;SDS011;16639;51.488;0.152;2023-07-22T13:29:24;9.70;;;5.15;;
29730;SDS011;16639;51.488;0.152;2023-07-22T13:31:51;10.80;;;5.20;;
29730;SDS011;16639;51.488;0.152;2023-07-22T13:34:19;10.93;;;5.70;;
29730;SDS011;16639;51.488;0.152;2023-07-22T13:36:47;14.55;;;5.60;;
29730;SDS011;16639;51.488;0.152;2023-07-22T13:39:14;10.38;;;5.20;;
29730;SDS011;16639;51.488;0.152;2023-07-22T13:41:41;8.15;;;4.75;;
29730;SDS011;16639;51.488;0.152;2023-07-22T13:44:09;11.38;;;6.07;;
29730;SDS011;16639;51.488;0.152;2023-07-22T13:46:36;14.50;;;6.38;;
29730;SDS011;16639;51.488;0.152;2023-07-22T13:49:04;16.20;;;6.93;;
29730;SDS011;16639;51.488;0.152;2023-07-22T13:51:31;14.98;;;7.45;;
29730;SDS011;16639;51.488;0.152;2023-07-22T13:53:59;13.68;;;7.57;;
29730;SDS011;16639;51.488;0.152;2023-07-22T13:56:26;14.57;;;7.65;;
29730;SDS011;16639;51.488;0.152;2023-07-22T13:58:55;23.63;;;7.82;;
29730;SDS011;16639;51.488;0.152;2023-07-22T14:01:22;18.70;;;7.70;;
29730;SDS011;16639;51.488;0.152;2023-07-22T14:03:50;10.70;;;6.47;;
29730;SDS011;16639;51.488;0.152;2023-07-22T14:06:20;13.55;;;7.35;;
29730;SDS011;16639;51.488;0.152;2023-07-22T14:08:47;17.50;;;8.60;;
29730;SDS011;16639;51.488;0.152;2023-07-22T14:11:15;15.90;;;8.48;;
29730;SDS011;16639;51.488;0.152;2023-07-22T14:13:43;13.68;;;7.28;;
29730;SDS011;16639;51.488;0.152;2023-07-22T14:16:11;17.02;;;7.93;;
29730;SDS011;16639;51.488;0.152;2023-07-22T14:18:50;17.70;;;7.80;;
29730;SDS011;16639;51.488;0.152;2023-07-22T14:21:19;16.85;;;7.95;;
29730;SDS011;16639;51.488;0.152;2023-07-22T14:23:47;26.63;;;7.90;;
29730;SDS011;16639;51.488;0.152;2023-07-22T14:26:14;18.40;;;7.57;;
29730;SDS011;16639;51.488;0.152;2023-07-22T14:28:41;15.63;;;7.93;;
29730;SDS011;16639;51.488;0.152;2023-07-22T14:31:09;16.25;;;7.38;;
29730;SDS011;16639;51.488;0.152;2023-07-22T14:33:37;11.45;;;7.32;;
29730;SDS011;16639;51.488;0.152;2023-07-22T14:36:07;15.30;;;8.23;;
29730;SDS011;16639;51.488;0.152;2023-07-22T14:38:34;14.27;;;7.35;;
29730;SDS011;16639;51.488;0.152;2023-07-22T14:41:02;14.95;;;6.85;;
29730;SDS011;16639;51.488;0.152;2023-07-22T14:43:29;14.40;;;7.80;;
29730;SDS011;16639;51.488;0.152;2023-07-22T14:45:57;14.25;;;6.43;;
29730;SDS011;16639;51.488;0.152;2023-07-22T14:48:25;10.65;;;6.13;;
29730;SDS011;16639;51.488;0.152;2023-07-22T14:50:53;10.93;;;5.45;;
29730;SDS011;16639;51.488;0.152;2023-07-22T14:53:20;12.77;;;6.25;;
29730;SDS011;16639;51.488;0.152;2023-07-22T14:55:47;13.00;;;7.47;;